Terminal Aerodrome Forecast
Issued by NWS

Home | Current Version | Previous Version | Text Only | Print | Product List | Glossary On
Versions: 1 2 3 4 5 6 7 8 9 10 11 12 13 14 15 16 17 18
000
FTUS43 KAPX 231913 AAA
TAFTVC
TAF AMD
KTVC 231913Z 2319/2418 29011KT P6SM SCT050 BKN200
     FM232200 25010KT P6SM SCT050
     FM240200 31008KT P6SM SCT060
     FM240400 00000KT P6SM SCT050
     FM240800 24006KT P6SM SCT050
     FM241200 28005KT P6SM BKN050=

USA.gov is the U.S. government's official web portal to all federal, state and local government web resources and services.